Terminal Aerodrome Forecast
Issued by NWS Twin Cities, MN

Home | Current Version | Previous Version | Graphics & Text | Print | Product List | Glossary On
Versions: 1 2 3 4 5 6 7 8 9 10 11 12 13 14 15 16 17
411
FTUS43 KMPX 041139
TAFEAU
TAF
KEAU 041139Z 0412/0512 12008KT 2SM -SN BR SCT007 OVC025
      TEMPO 0412/0416 1SM -SN BR BKN007
     FM041600 16008KT 1SM -SN BR OVC005
     FM042200 21007KT 4SM -SN OVC006
     FM050100 24006KT P6SM OVC007
     FM050800 20005KT P6SM BKN015=

USA.gov is the U.S. government's official web portal to all federal, state and local government web resources and services.